KPDX/PDX METAR and TAF weather

Enter ICAO airport designator
Station Type Date Time Source
KPDX METAR 2021/01/20 21:53 UTC NOAA

KPDX 202153Z 00000KT 10SM SCT060 BKN090 BKN250 08/01 A3016 RMK AO2 SLP212 T00780006


Station Type Date Time Source
KPDX Decoded METAR 2021/01/20 21:53 UTC NOAA

PORTLAND INTERNATIONAL AIRPORT, OR, United States (KPDX) 45-35N 122-36W 7M
Jan 20, 2021 - 04:53 PM EST / 2021.01.20 2153 UTC
Wind: Calm:0
Visibility: 10 mile(s):0
Sky conditions: mostly cloudy
Temperature: 46.0 F (7.8 C)
Dew Point: 33.1 F (0.6 C)
Relative Humidity: 60%
Pressure (altimeter): 30.16 in. Hg (1021 hPa)
ob: KPDX 202153Z 00000KT 10SM SCT060 BKN090 BKN250 08/01 A3016 RMK AO2 SLP212 T00780006
cycle: 22

Station Type Date Time Source
KPDX TAF 2021/01/20 21:40 UTC NOAA

TAF
AMD KPDX 202038Z 2021/2118 00000KT P6SM BKN100
FM210600 00000KT P6SM BKN045
FM210900 00000KT 6SM -RA BKN030
FM211200 00000KT P6SM VCSH OVC018

Example: see airport list